sensor_id;sensor_type;location;lat;lon;timestamp;temperature;humidity
24260;DHT22;12384;48.112;18.418;2022-12-20T00:01:34;-0.70;96.30
24260;DHT22;12384;48.112;18.418;2022-12-20T00:04:04;-0.70;96.70
24260;DHT22;12384;48.112;18.418;2022-12-20T00:06:34;-0.70;96.30
24260;DHT22;12384;48.112;18.418;2022-12-20T00:09:04;-0.70;96.30
24260;DHT22;12384;48.112;18.418;2022-12-20T00:11:33;-0.70;96.30
24260;DHT22;12384;48.112;18.418;2022-12-20T00:14:02;-0.70;96.30
24260;DHT22;12384;48.112;18.418;2022-12-20T00:16:31;-0.70;96.30
24260;DHT22;12384;48.112;18.418;2022-12-20T00:19:02;-0.70;96.20
24260;DHT22;12384;48.112;18.418;2022-12-20T00:21:32;-0.70;96.20
24260;DHT22;12384;48.112;18.418;2022-12-20T00:24:01;-0.70;96.20
24260;DHT22;12384;48.112;18.418;2022-12-20T00:26:31;-0.70;96.20
24260;DHT22;12384;48.112;18.418;2022-12-20T00:29:00;-0.70;96.20
24260;DHT22;12384;48.112;18.418;2022-12-20T00:31:29;-0.70;96.30
24260;DHT22;12384;48.112;18.418;2022-12-20T00:34:00;-0.70;96.30
24260;DHT22;12384;48.112;18.418;2022-12-20T00:36:29;-0.70;96.30
24260;DHT22;12384;48.112;18.418;2022-12-20T00:38:59;-0.70;96.40
24260;DHT22;12384;48.112;18.418;2022-12-20T00:41:30;-0.70;96.50
24260;DHT22;12384;48.112;18.418;2022-12-20T00:43:58;-0.70;96.60
24260;DHT22;12384;48.112;18.418;2022-12-20T00:46:27;-0.70;96.90
24260;DHT22;12384;48.112;18.418;2022-12-20T00:48:59;-0.70;96.60
24260;DHT22;12384;48.112;18.418;2022-12-20T00:51:29;-0.70;96.70
24260;DHT22;12384;48.112;18.418;2022-12-20T00:53:58;-0.70;96.80
24260;DHT22;12384;48.112;18.418;2022-12-20T00:56:27;-0.70;96.70
24260;DHT22;12384;48.112;18.418;2022-12-20T00:58:57;-0.60;96.80
24260;DHT22;12384;48.112;18.418;2022-12-20T01:01:28;-0.70;96.70
24260;DHT22;12384;48.112;18.418;2022-12-20T01:03:58;-0.70;96.70
24260;DHT22;12384;48.112;18.418;2022-12-20T01:06:29;-0.70;96.60
24260;DHT22;12384;48.112;18.418;2022-12-20T01:08:57;-0.60;96.70
24260;DHT22;12384;48.112;18.418;2022-12-20T01:11:29;-0.60;96.80
24260;DHT22;12384;48.112;18.418;2022-12-20T01:13:59;-0.70;96.80
24260;DHT22;12384;48.112;18.418;2022-12-20T01:16:30;-0.70;96.80
24260;DHT22;12384;48.112;18.418;2022-12-20T01:18:59;-0.70;96.90
24260;DHT22;12384;48.112;18.418;2022-12-20T01:21:29;-0.70;96.90
24260;DHT22;12384;48.112;18.418;2022-12-20T01:23:58;-0.70;97.00
24260;DHT22;12384;48.112;18.418;2022-12-20T01:26:27;-0.70;97.20
24260;DHT22;12384;48.112;18.418;2022-12-20T01:28:57;-0.70;97.30
24260;DHT22;12384;48.112;18.418;2022-12-20T01:31:27;-0.70;97.40
24260;DHT22;12384;48.112;18.418;2022-12-20T01:33:56;-0.60;97.60
24260;DHT22;12384;48.112;18.418;2022-12-20T01:36:27;-0.60;97.70
24260;DHT22;12384;48.112;18.418;2022-12-20T01:38:58;-0.60;97.70
24260;DHT22;12384;48.112;18.418;2022-12-20T01:41:28;-0.60;97.80
24260;DHT22;12384;48.112;18.418;2022-12-20T01:43:59;-0.60;97.80
24260;DHT22;12384;48.112;18.418;2022-12-20T01:46:29;-0.60;97.80
24260;DHT22;12384;48.112;18.418;2022-12-20T01:49:01;-0.60;97.80
24260;DHT22;12384;48.112;18.418;2022-12-20T01:51:34;-0.60;97.80
24260;DHT22;12384;48.112;18.418;2022-12-20T01:54:08;-0.60;97.90
24260;DHT22;12384;48.112;18.418;2022-12-20T01:56:39;-0.60;97.90
24260;DHT22;12384;48.112;18.418;2022-12-20T01:59:08;-0.60;97.90
24260;DHT22;12384;48.112;18.418;2022-12-20T02:01:38;-0.60;97.80
24260;DHT22;12384;48.112;18.418;2022-12-20T02:04:07;-0.60;97.90
24260;DHT22;12384;48.112;18.418;2022-12-20T02:06:36;-0.60;97.90
24260;DHT22;12384;48.112;18.418;2022-12-20T02:09:06;-0.60;97.90
24260;DHT22;12384;48.112;18.418;2022-12-20T02:11:54;-0.60;98.00
24260;DHT22;12384;48.112;18.418;2022-12-20T02:14:40;-0.60;98.00
24260;DHT22;12384;48.112;18.418;2022-12-20T02:17:16;-0.60;98.00
24260;DHT22;12384;48.112;18.418;2022-12-20T02:20:13;-0.60;98.00
24260;DHT22;12384;48.112;18.418;2022-12-20T02:23:04;-0.60;98.10
24260;DHT22;12384;48.112;18.418;2022-12-20T02:25:45;-0.60;98.10
24260;DHT22;12384;48.112;18.418;2022-12-20T02:28:31;-0.60;98.20
24260;DHT22;12384;48.112;18.418;2022-12-20T02:31:09;-0.60;98.20
24260;DHT22;12384;48.112;18.418;2022-12-20T02:33:41;-0.60;98.20
24260;DHT22;12384;48.112;18.418;2022-12-20T02:36:13;-0.60;98.10
24260;DHT22;12384;48.112;18.418;2022-12-20T02:38:42;-0.60;98.20
24260;DHT22;12384;48.112;18.418;2022-12-20T02:41:13;-0.60;98.20
24260;DHT22;12384;48.112;18.418;2022-12-20T02:43:48;-0.60;98.30
24260;DHT22;12384;48.112;18.418;2022-12-20T02:46:46;-0.60;98.30
24260;DHT22;12384;48.112;18.418;2022-12-20T02:49:19;-0.60;98.30
24260;DHT22;12384;48.112;18.418;2022-12-20T02:51:51;-0.60;98.30
24260;DHT22;12384;48.112;18.418;2022-12-20T02:54:21;-0.60;98.10
24260;DHT22;12384;48.112;18.418;2022-12-20T02:56:55;-0.60;97.90
24260;DHT22;12384;48.112;18.418;2022-12-20T02:59:28;-0.60;97.80
24260;DHT22;12384;48.112;18.418;2022-12-20T03:01:59;-0.60;97.90
24260;DHT22;12384;48.112;18.418;2022-12-20T03:04:30;-0.60;97.90
24260;DHT22;12384;48.112;18.418;2022-12-20T03:07:00;-0.60;97.90
24260;DHT22;12384;48.112;18.418;2022-12-20T03:09:30;-0.60;98.00
24260;DHT22;12384;48.112;18.418;2022-12-20T03:12:00;-0.60;98.10
24260;DHT22;12384;48.112;18.418;2022-12-20T03:14:31;-0.60;98.20
24260;DHT22;12384;48.112;18.418;2022-12-20T03:17:03;-0.60;98.20
24260;DHT22;12384;48.112;18.418;2022-12-20T03:19:32;-0.50;98.20
24260;DHT22;12384;48.112;18.418;2022-12-20T03:22:00;-0.50;98.20
24260;DHT22;12384;48.112;18.418;2022-12-20T03:24:30;-0.50;98.10
24260;DHT22;12384;48.112;18.418;2022-12-20T03:27:00;-0.50;98.00
24260;DHT22;12384;48.112;18.418;2022-12-20T03:29:28;-0.50;97.90
24260;DHT22;12384;48.112;18.418;2022-12-20T03:31:57;-0.50;98.00
24260;DHT22;12384;48.112;18.418;2022-12-20T03:34:27;-0.50;98.00
24260;DHT22;12384;48.112;18.418;2022-12-20T03:36:56;-0.50;98.10
24260;DHT22;12384;48.112;18.418;2022-12-20T03:39:24;-0.50;98.10
24260;DHT22;12384;48.112;18.418;2022-12-20T03:41:54;-0.50;98.20
24260;DHT22;12384;48.112;18.418;2022-12-20T03:44:22;-0.50;98.20
24260;DHT22;12384;48.112;18.418;2022-12-20T03:46:53;-0.50;98.20
24260;DHT22;12384;48.112;18.418;2022-12-20T03:49:22;-0.50;98.20
24260;DHT22;12384;48.112;18.418;2022-12-20T03:51:52;-0.50;98.20
24260;DHT22;12384;48.112;18.418;2022-12-20T03:54:21;-0.50;98.30
24260;DHT22;12384;48.112;18.418;2022-12-20T03:57:19;-0.50;98.30
24260;DHT22;12384;48.112;18.418;2022-12-20T03:59:50;-0.50;98.30
24260;DHT22;12384;48.112;18.418;2022-12-20T04:02:20;-0.50;98.30
24260;DHT22;12384;48.112;18.418;2022-12-20T04:04:51;-0.50;98.30
24260;DHT22;12384;48.112;18.418;2022-12-20T04:07:21;-0.40;98.40
24260;DHT22;12384;48.112;18.418;2022-12-20T04:09:50;-0.40;98.50
24260;DHT22;12384;48.112;18.418;2022-12-20T04:12:18;-0.40;98.50
24260;DHT22;12384;48.112;18.418;2022-12-20T04:14:46;-0.40;98.50
24260;DHT22;12384;48.112;18.418;2022-12-20T04:17:15;-0.40;98.50
24260;DHT22;12384;48.112;18.418;2022-12-20T04:19:43;-0.40;98.60
24260;DHT22;12384;48.112;18.418;2022-12-20T04:22:12;-0.40;98.70
24260;DHT22;12384;48.112;18.418;2022-12-20T04:24:55;-0.40;98.70
24260;DHT22;12384;48.112;18.418;2022-12-20T04:27:31;-0.40;98.70
24260;DHT22;12384;48.112;18.418;2022-12-20T04:30:02;-0.40;98.60
24260;DHT22;12384;48.112;18.418;2022-12-20T04:32:31;-0.40;98.50
24260;DHT22;12384;48.112;18.418;2022-12-20T04:35:00;-0.30;98.90
24260;DHT22;12384;48.112;18.418;2022-12-20T04:37:36;-0.30;98.80
24260;DHT22;12384;48.112;18.418;2022-12-20T04:40:07;-0.30;98.50
24260;DHT22;12384;48.112;18.418;2022-12-20T04:42:43;-0.30;98.40
24260;DHT22;12384;48.112;18.418;2022-12-20T04:45:14;-0.30;98.30
24260;DHT22;12384;48.112;18.418;2022-12-20T04:47:42;-0.30;98.20
24260;DHT22;12384;48.112;18.418;2022-12-20T04:50:14;-0.30;98.20
24260;DHT22;12384;48.112;18.418;2022-12-20T04:52:42;-0.30;98.10
24260;DHT22;12384;48.112;18.418;2022-12-20T04:55:30;-0.30;98.00
24260;DHT22;12384;48.112;18.418;2022-12-20T04:57:58;-0.30;98.00
24260;DHT22;12384;48.112;18.418;2022-12-20T05:00:35;-0.30;97.90
24260;DHT22;12384;48.112;18.418;2022-12-20T05:03:16;-0.30;97.90
24260;DHT22;12384;48.112;18.418;2022-12-20T05:05:45;-0.30;97.90
24260;DHT22;12384;48.112;18.418;2022-12-20T05:08:13;-0.30;98.00
24260;DHT22;12384;48.112;18.418;2022-12-20T05:10:43;-0.30;98.00
24260;DHT22;12384;48.112;18.418;2022-12-20T05:13:12;-0.30;98.00
24260;DHT22;12384;48.112;18.418;2022-12-20T05:15:43;-0.30;98.10
24260;DHT22;12384;48.112;18.418;2022-12-20T05:18:12;-0.30;98.10
24260;DHT22;12384;48.112;18.418;2022-12-20T05:20:50;-0.30;98.00
24260;DHT22;12384;48.112;18.418;2022-12-20T05:23:40;-0.30;97.90
24260;DHT22;12384;48.112;18.418;2022-12-20T05:26:33;-0.30;97.90
24260;DHT22;12384;48.112;18.418;2022-12-20T05:29:04;-0.30;97.80
24260;DHT22;12384;48.112;18.418;2022-12-20T05:31:33;-0.30;97.80
24260;DHT22;12384;48.112;18.418;2022-12-20T05:34:02;-0.30;97.80
24260;DHT22;12384;48.112;18.418;2022-12-20T05:36:34;-0.30;97.70
24260;DHT22;12384;48.112;18.418;2022-12-20T05:39:05;-0.30;97.70
24260;DHT22;12384;48.112;18.418;2022-12-20T05:41:38;-0.30;97.70
24260;DHT22;12384;48.112;18.418;2022-12-20T05:44:07;-0.30;97.60
24260;DHT22;12384;48.112;18.418;2022-12-20T05:46:39;-0.30;97.60
24260;DHT22;12384;48.112;18.418;2022-12-20T05:49:14;-0.20;97.60
24260;DHT22;12384;48.112;18.418;2022-12-20T05:51:42;-0.30;97.50
24260;DHT22;12384;48.112;18.418;2022-12-20T05:54:21;-0.20;97.50
24260;DHT22;12384;48.112;18.418;2022-12-20T05:57:13;-0.30;97.50
24260;DHT22;12384;48.112;18.418;2022-12-20T05:59:42;-0.20;97.50
24260;DHT22;12384;48.112;18.418;2022-12-20T06:02:16;-0.20;97.50
24260;DHT22;12384;48.112;18.418;2022-12-20T06:04:48;-0.20;97.40
24260;DHT22;12384;48.112;18.418;2022-12-20T06:07:22;-0.20;97.40
24260;DHT22;12384;48.112;18.418;2022-12-20T06:09:58;-0.20;97.40
24260;DHT22;12384;48.112;18.418;2022-12-20T06:12:40;-0.20;97.40
24260;DHT22;12384;48.112;18.418;2022-12-20T06:15:09;-0.20;97.40
24260;DHT22;12384;48.112;18.418;2022-12-20T06:17:40;-0.20;97.30
24260;DHT22;12384;48.112;18.418;2022-12-20T06:20:10;-0.20;97.30
24260;DHT22;12384;48.112;18.418;2022-12-20T06:22:42;-0.20;97.30
24260;DHT22;12384;48.112;18.418;2022-12-20T06:25:13;-0.20;97.30
24260;DHT22;12384;48.112;18.418;2022-12-20T06:27:43;-0.20;97.30
24260;DHT22;12384;48.112;18.418;2022-12-20T06:30:15;-0.20;97.40
24260;DHT22;12384;48.112;18.418;2022-12-20T06:33:00;-0.20;97.50
24260;DHT22;12384;48.112;18.418;2022-12-20T06:35:29;-0.20;97.60
24260;DHT22;12384;48.112;18.418;2022-12-20T06:37:58;-0.20;97.60
24260;DHT22;12384;48.112;18.418;2022-12-20T06:40:30;-0.20;97.60
24260;DHT22;12384;48.112;18.418;2022-12-20T06:43:01;-0.20;97.60
24260;DHT22;12384;48.112;18.418;2022-12-20T06:45:30;-0.20;97.60
24260;DHT22;12384;48.112;18.418;2022-12-20T06:48:07;-0.20;97.60
24260;DHT22;12384;48.112;18.418;2022-12-20T06:50:37;-0.20;97.60
24260;DHT22;12384;48.112;18.418;2022-12-20T06:53:06;-0.20;97.70
24260;DHT22;12384;48.112;18.418;2022-12-20T06:55:35;-0.20;97.70
24260;DHT22;12384;48.112;18.418;2022-12-20T06:58:05;-0.20;97.70
24260;DHT22;12384;48.112;18.418;2022-12-20T07:00:36;-0.20;97.80
24260;DHT22;12384;48.112;18.418;2022-12-20T07:03:05;-0.20;97.80
24260;DHT22;12384;48.112;18.418;2022-12-20T07:05:34;-0.10;97.90
24260;DHT22;12384;48.112;18.418;2022-12-20T07:08:03;-0.10;97.90
24260;DHT22;12384;48.112;18.418;2022-12-20T07:10:34;-0.10;97.90
24260;DHT22;12384;48.112;18.418;2022-12-20T07:13:03;-0.10;97.90
24260;DHT22;12384;48.112;18.418;2022-12-20T07:15:32;-0.10;97.90
24260;DHT22;12384;48.112;18.418;2022-12-20T07:18:01;-0.10;97.90
24260;DHT22;12384;48.112;18.418;2022-12-20T07:20:30;-0.10;97.80
24260;DHT22;12384;48.112;18.418;2022-12-20T07:22:58;0.00;97.90
24260;DHT22;12384;48.112;18.418;2022-12-20T07:25:27;0.00;97.80
24260;DHT22;12384;48.112;18.418;2022-12-20T07:27:55;0.00;97.80
24260;DHT22;12384;48.112;18.418;2022-12-20T07:30:24;0.00;97.80
24260;DHT22;12384;48.112;18.418;2022-12-20T07:32:54;0.00;97.90
24260;DHT22;12384;48.112;18.418;2022-12-20T07:35:22;0.00;97.80
24260;DHT22;12384;48.112;18.418;2022-12-20T07:37:51;0.10;97.80
24260;DHT22;12384;48.112;18.418;2022-12-20T07:40:20;0.10;97.80
24260;DHT22;12384;48.112;18.418;2022-12-20T07:42:48;0.10;97.70
24260;DHT22;12384;48.112;18.418;2022-12-20T07:45:17;0.10;97.50
24260;DHT22;12384;48.112;18.418;2022-12-20T07:47:46;0.10;97.30
24260;DHT22;12384;48.112;18.418;2022-12-20T07:50:15;0.10;97.20
24260;DHT22;12384;48.112;18.418;2022-12-20T07:52:45;0.10;97.00
24260;DHT22;12384;48.112;18.418;2022-12-20T07:55:16;0.20;96.90
24260;DHT22;12384;48.112;18.418;2022-12-20T07:57:47;0.20;96.70
24260;DHT22;12384;48.112;18.418;2022-12-20T08:00:18;0.20;96.40
24260;DHT22;12384;48.112;18.418;2022-12-20T08:02:49;0.20;96.40
24260;DHT22;12384;48.112;18.418;2022-12-20T08:05:21;0.20;96.30
24260;DHT22;12384;48.112;18.418;2022-12-20T08:07:51;0.20;96.30
24260;DHT22;12384;48.112;18.418;2022-12-20T08:10:26;0.20;96.20
24260;DHT22;12384;48.112;18.418;2022-12-20T08:12:55;0.20;96.10
24260;DHT22;12384;48.112;18.418;2022-12-20T08:15:24;0.30;96.10
24260;DHT22;12384;48.112;18.418;2022-12-20T08:17:52;0.30;96.10
24260;DHT22;12384;48.112;18.418;2022-12-20T08:20:22;0.30;96.10
24260;DHT22;12384;48.112;18.418;2022-12-20T08:22:50;0.30;96.20
24260;DHT22;12384;48.112;18.418;2022-12-20T08:25:18;0.30;96.30
24260;DHT22;12384;48.112;18.418;2022-12-20T08:27:47;0.40;96.40
24260;DHT22;12384;48.112;18.418;2022-12-20T08:30:16;0.40;96.60
24260;DHT22;12384;48.112;18.418;2022-12-20T08:32:45;0.40;96.60
24260;DHT22;12384;48.112;18.418;2022-12-20T08:35:13;0.50;96.70
24260;DHT22;12384;48.112;18.418;2022-12-20T08:37:43;0.50;96.60
24260;DHT22;12384;48.112;18.418;2022-12-20T08:40:12;0.60;96.40
24260;DHT22;12384;48.112;18.418;2022-12-20T08:42:40;0.60;96.10
24260;DHT22;12384;48.112;18.418;2022-12-20T08:45:09;0.60;96.00
24260;DHT22;12384;48.112;18.418;2022-12-20T08:47:38;0.70;95.80
24260;DHT22;12384;48.112;18.418;2022-12-20T08:50:07;0.70;95.50
24260;DHT22;12384;48.112;18.418;2022-12-20T08:52:35;0.70;95.30
24260;DHT22;12384;48.112;18.418;2022-12-20T08:55:06;0.80;95.10
24260;DHT22;12384;48.112;18.418;2022-12-20T08:57:34;0.80;94.40
24260;DHT22;12384;48.112;18.418;2022-12-20T09:00:03;0.80;93.90
24260;DHT22;12384;48.112;18.418;2022-12-20T09:02:33;0.80;93.30
24260;DHT22;12384;48.112;18.418;2022-12-20T09:05:04;0.90;92.90
24260;DHT22;12384;48.112;18.418;2022-12-20T09:07:33;0.90;92.50
24260;DHT22;12384;48.112;18.418;2022-12-20T09:10:01;0.90;92.00
24260;DHT22;12384;48.112;18.418;2022-12-20T09:12:31;0.90;91.40
24260;DHT22;12384;48.112;18.418;2022-12-20T09:15:03;0.90;91.50
24260;DHT22;12384;48.112;18.418;2022-12-20T09:17:32;1.00;91.20
24260;DHT22;12384;48.112;18.418;2022-12-20T09:20:00;1.00;90.80
24260;DHT22;12384;48.112;18.418;2022-12-20T09:22:29;1.00;90.40
24260;DHT22;12384;48.112;18.418;2022-12-20T09:24:57;1.00;90.30
24260;DHT22;12384;48.112;18.418;2022-12-20T09:27:25;1.00;90.10
24260;DHT22;12384;48.112;18.418;2022-12-20T09:29:55;1.00;90.00
24260;DHT22;12384;48.112;18.418;2022-12-20T09:32:23;1.00;89.70
24260;DHT22;12384;48.112;18.418;2022-12-20T09:34:52;1.00;89.90
24260;DHT22;12384;48.112;18.418;2022-12-20T09:37:20;1.00;90.20
24260;DHT22;12384;48.112;18.418;2022-12-20T09:39:49;1.10;90.30
24260;DHT22;12384;48.112;18.418;2022-12-20T09:42:21;1.10;90.30
24260;DHT22;12384;48.112;18.418;2022-12-20T09:44:52;1.10;90.10
24260;DHT22;12384;48.112;18.418;2022-12-20T09:47:27;1.20;89.40
24260;DHT22;12384;48.112;18.418;2022-12-20T09:49:56;1.20;88.80
24260;DHT22;12384;48.112;18.418;2022-12-20T09:52:33;1.20;88.00
24260;DHT22;12384;48.112;18.418;2022-12-20T09:55:15;1.30;87.50
24260;DHT22;12384;48.112;18.418;2022-12-20T09:57:56;1.30;87.00
24260;DHT22;12384;48.112;18.418;2022-12-20T10:00:25;1.30;86.00
24260;DHT22;12384;48.112;18.418;2022-12-20T10:02:55;1.30;84.80
24260;DHT22;12384;48.112;18.418;2022-12-20T10:05:41;1.30;84.20
24260;DHT22;12384;48.112;18.418;2022-12-20T10:08:15;1.40;84.10
24260;DHT22;12384;48.112;18.418;2022-12-20T10:10:54;1.40;83.80
24260;DHT22;12384;48.112;18.418;2022-12-20T10:13:32;1.40;84.10
24260;DHT22;12384;48.112;18.418;2022-12-20T10:16:10;1.50;84.00
24260;DHT22;12384;48.112;18.418;2022-12-20T10:18:55;1.50;83.30
24260;DHT22;12384;48.112;18.418;2022-12-20T10:21:32;1.50;82.50
24260;DHT22;12384;48.112;18.418;2022-12-20T10:24:11;1.60;81.80
24260;DHT22;12384;48.112;18.418;2022-12-20T10:26:41;1.60;80.90
24260;DHT22;12384;48.112;18.418;2022-12-20T10:29:10;1.60;80.40
24260;DHT22;12384;48.112;18.418;2022-12-20T10:31:38;1.60;80.10
24260;DHT22;12384;48.112;18.418;2022-12-20T10:34:08;1.60;79.50
24260;DHT22;12384;48.112;18.418;2022-12-20T10:36:37;1.60;78.70
24260;DHT22;12384;48.112;18.418;2022-12-20T10:39:07;1.60;78.10
24260;DHT22;12384;48.112;18.418;2022-12-20T10:41:46;1.60;77.80
24260;DHT22;12384;48.112;18.418;2022-12-20T10:44:18;1.60;77.50
24260;DHT22;12384;48.112;18.418;2022-12-20T10:46:51;1.50;77.10
24260;DHT22;12384;48.112;18.418;2022-12-20T10:49:31;1.50;76.80
24260;DHT22;12384;48.112;18.418;2022-12-20T10:52:02;1.50;76.60
24260;DHT22;12384;48.112;18.418;2022-12-20T10:54:33;1.60;76.50
24260;DHT22;12384;48.112;18.418;2022-12-20T10:57:13;1.50;76.30
24260;DHT22;12384;48.112;18.418;2022-12-20T10:59:49;1.50;76.20
24260;DHT22;12384;48.112;18.418;2022-12-20T11:02:25;1.50;76.20
24260;DHT22;12384;48.112;18.418;2022-12-20T11:05:21;1.60;76.50
24260;DHT22;12384;48.112;18.418;2022-12-20T11:07:53;1.60;76.60
24260;DHT22;12384;48.112;18.418;2022-12-20T11:10:43;1.60;76.50
24260;DHT22;12384;48.112;18.418;2022-12-20T11:13:21;1.60;76.20
24260;DHT22;12384;48.112;18.418;2022-12-20T11:15:52;1.60;76.00
24260;DHT22;12384;48.112;18.418;2022-12-20T11:18:34;1.60;75.80
24260;DHT22;12384;48.112;18.418;2022-12-20T11:21:15;1.60;75.70
24260;DHT22;12384;48.112;18.418;2022-12-20T11:23:59;1.70;75.50
24260;DHT22;12384;48.112;18.418;2022-12-20T11:26:40;1.70;74.60
24260;DHT22;12384;48.112;18.418;2022-12-20T11:29:27;1.70;73.90
24260;DHT22;12384;48.112;18.418;2022-12-20T11:32:03;1.60;73.30
24260;DHT22;12384;48.112;18.418;2022-12-20T11:34:41;1.60;72.80
24260;DHT22;12384;48.112;18.418;2022-12-20T11:37:19;1.60;72.50
24260;DHT22;12384;48.112;18.418;2022-12-20T11:40:15;1.50;72.20
24260;DHT22;12384;48.112;18.418;2022-12-20T11:42:59;1.50;72.40
24260;DHT22;12384;48.112;18.418;2022-12-20T11:45:35;1.60;72.70
24260;DHT22;12384;48.112;18.418;2022-12-20T11:48:35;1.60;72.80
24260;DHT22;12384;48.112;18.418;2022-12-20T11:51:13;1.60;73.20
24260;DHT22;12384;48.112;18.418;2022-12-20T11:53:56;1.70;74.00
24260;DHT22;12384;48.112;18.418;2022-12-20T11:56:32;1.80;75.10
24260;DHT22;12384;48.112;18.418;2022-12-20T11:59:14;2.00;76.60
24260;DHT22;12384;48.112;18.418;2022-12-20T12:01:47;2.10;76.40
24260;DHT22;12384;48.112;18.418;2022-12-20T12:04:20;2.30;75.60
24260;DHT22;12384;48.112;18.418;2022-12-20T12:06:55;2.40;74.50
24260;DHT22;12384;48.112;18.418;2022-12-20T12:09:31;2.50;73.20
24260;DHT22;12384;48.112;18.418;2022-12-20T12:12:03;2.50;71.50
24260;DHT22;12384;48.112;18.418;2022-12-20T12:14:47;2.50;69.80
24260;DHT22;12384;48.112;18.418;2022-12-20T12:17:24;2.50;68.60
24260;DHT22;12384;48.112;18.418;2022-12-20T12:19:58;2.50;67.90
24260;DHT22;12384;48.112;18.418;2022-12-20T12:22:34;2.50;67.90
24260;DHT22;12384;48.112;18.418;2022-12-20T12:25:10;2.50;68.10
24260;DHT22;12384;48.112;18.418;2022-12-20T12:27:41;2.60;67.90
24260;DHT22;12384;48.112;18.418;2022-12-20T12:30:12;2.60;67.70
24260;DHT22;12384;48.112;18.418;2022-12-20T12:32:44;2.70;68.20
24260;DHT22;12384;48.112;18.418;2022-12-20T12:35:29;2.80;68.00
24260;DHT22;12384;48.112;18.418;2022-12-20T12:38:22;2.90;67.50
24260;DHT22;12384;48.112;18.418;2022-12-20T12:41:21;3.00;65.90
24260;DHT22;12384;48.112;18.418;2022-12-20T12:43:59;3.00;64.50
24260;DHT22;12384;48.112;18.418;2022-12-20T12:46:33;2.90;64.10
24260;DHT22;12384;48.112;18.418;2022-12-20T12:49:06;2.90;63.90
24260;DHT22;12384;48.112;18.418;2022-12-20T12:51:40;2.90;63.70
24260;DHT22;12384;48.112;18.418;2022-12-20T12:54:17;2.80;63.70
24260;DHT22;12384;48.112;18.418;2022-12-20T12:56:48;2.90;63.90
24260;DHT22;12384;48.112;18.418;2022-12-20T13:05:32;3.20;64.80
24260;DHT22;12384;48.112;18.418;2022-12-20T13:08:01;3.30;64.10
24260;DHT22;12384;48.112;18.418;2022-12-20T13:11:00;3.40;63.20
24260;DHT22;12384;48.112;18.418;2022-12-20T13:13:30;3.40;62.40
24260;DHT22;12384;48.112;18.418;2022-12-20T13:16:12;3.40;61.70
24260;DHT22;12384;48.112;18.418;2022-12-20T13:19:17;3.40;61.00
24260;DHT22;12384;48.112;18.418;2022-12-20T13:21:46;3.30;60.50
24260;DHT22;12384;48.112;18.418;2022-12-20T13:24:46;3.20;60.20
24260;DHT22;12384;48.112;18.418;2022-12-20T13:27:37;3.10;60.00
24260;DHT22;12384;48.112;18.418;2022-12-20T13:30:24;3.00;59.90
24260;DHT22;12384;48.112;18.418;2022-12-20T13:32:58;2.90;59.90
24260;DHT22;12384;48.112;18.418;2022-12-20T13:35:42;2.80;60.00
24260;DHT22;12384;48.112;18.418;2022-12-20T13:38:37;2.70;60.20
24260;DHT22;12384;48.112;18.418;2022-12-20T13:41:16;2.50;60.30
24260;DHT22;12384;48.112;18.418;2022-12-20T13:43:48;2.50;60.60
24260;DHT22;12384;48.112;18.418;2022-12-20T13:46:24;2.40;60.80
24260;DHT22;12384;48.112;18.418;2022-12-20T13:48:56;2.30;61.00
24260;DHT22;12384;48.112;18.418;2022-12-20T13:51:29;2.30;61.40
24260;DHT22;12384;48.112;18.418;2022-12-20T13:54:00;2.20;61.60
24260;DHT22;12384;48.112;18.418;2022-12-20T13:56:35;2.10;61.90
24260;DHT22;12384;48.112;18.418;2022-12-20T13:59:14;2.10;62.10
24260;DHT22;12384;48.112;18.418;2022-12-20T14:01:49;2.00;62.30
24260;DHT22;12384;48.112;18.418;2022-12-20T14:04:19;1.90;62.40
24260;DHT22;12384;48.112;18.418;2022-12-20T14:06:52;1.90;62.80
24260;DHT22;12384;48.112;18.418;2022-12-20T14:09:29;1.90;63.10
24260;DHT22;12384;48.112;18.418;2022-12-20T14:12:03;1.80;63.20
24260;DHT22;12384;48.112;18.418;2022-12-20T14:14:36;1.80;63.40
24260;DHT22;12384;48.112;18.418;2022-12-20T14:17:16;1.70;63.60
24260;DHT22;12384;48.112;18.418;2022-12-20T14:19:45;1.70;63.90
24260;DHT22;12384;48.112;18.418;2022-12-20T14:22:14;1.70;64.10
24260;DHT22;12384;48.112;18.418;2022-12-20T14:24:43;1.60;64.30
24260;DHT22;12384;48.112;18.418;2022-12-20T14:27:13;1.60;64.50
24260;DHT22;12384;48.112;18.418;2022-12-20T14:29:44;1.60;64.80
24260;DHT22;12384;48.112;18.418;2022-12-20T14:32:18;1.60;65.00
24260;DHT22;12384;48.112;18.418;2022-12-20T14:34:48;1.60;65.30
24260;DHT22;12384;48.112;18.418;2022-12-20T14:37:27;1.50;65.30
24260;DHT22;12384;48.112;18.418;2022-12-20T14:39:59;1.50;65.60
24260;DHT22;12384;48.112;18.418;2022-12-20T14:42:32;1.50;65.80
24260;DHT22;12384;48.112;18.418;2022-12-20T14:45:14;1.40;66.00
24260;DHT22;12384;48.112;18.418;2022-12-20T14:47:53;1.40;66.20
24260;DHT22;12384;48.112;18.418;2022-12-20T14:50:27;1.40;66.40
24260;DHT22;12384;48.112;18.418;2022-12-20T14:52:56;1.30;66.50
24260;DHT22;12384;48.112;18.418;2022-12-20T14:55:31;1.30;66.70
24260;DHT22;12384;48.112;18.418;2022-12-20T14:58:00;1.30;67.10
24260;DHT22;12384;48.112;18.418;2022-12-20T15:00:30;1.30;67.30
24260;DHT22;12384;48.112;18.418;2022-12-20T15:03:10;1.30;67.50
24260;DHT22;12384;48.112;18.418;2022-12-20T15:05:45;1.30;67.70
24260;DHT22;12384;48.112;18.418;2022-12-20T15:08:17;1.20;67.90
24260;DHT22;12384;48.112;18.418;2022-12-20T15:10:49;1.20;68.10
24260;DHT22;12384;48.112;18.418;2022-12-20T15:13:20;1.20;68.30
24260;DHT22;12384;48.112;18.418;2022-12-20T15:15:49;1.20;68.60
24260;DHT22;12384;48.112;18.418;2022-12-20T15:18:20;1.10;68.70
24260;DHT22;12384;48.112;18.418;2022-12-20T15:20:59;1.10;68.90
24260;DHT22;12384;48.112;18.418;2022-12-20T15:23:28;1.10;69.20
24260;DHT22;12384;48.112;18.418;2022-12-20T15:25:57;1.10;69.30
24260;DHT22;12384;48.112;18.418;2022-12-20T15:28:26;1.10;69.40
24260;DHT22;12384;48.112;18.418;2022-12-20T15:30:55;1.10;69.60
24260;DHT22;12384;48.112;18.418;2022-12-20T15:33:26;1.00;69.80
24260;DHT22;12384;48.112;18.418;2022-12-20T15:35:55;1.00;70.00
24260;DHT22;12384;48.112;18.418;2022-12-20T15:38:25;1.00;70.30
24260;DHT22;12384;48.112;18.418;2022-12-20T15:41:19;1.00;70.50
24260;DHT22;12384;48.112;18.418;2022-12-20T15:43:51;1.00;70.90
24260;DHT22;12384;48.112;18.418;2022-12-20T15:46:20;1.00;71.20
24260;DHT22;12384;48.112;18.418;2022-12-20T15:48:49;1.00;71.50
24260;DHT22;12384;48.112;18.418;2022-12-20T15:51:23;1.00;71.90
24260;DHT22;12384;48.112;18.418;2022-12-20T15:53:54;1.00;72.20
24260;DHT22;12384;48.112;18.418;2022-12-20T15:56:24;0.90;72.40
24260;DHT22;12384;48.112;18.418;2022-12-20T15:58:53;0.90;72.70
24260;DHT22;12384;48.112;18.418;2022-12-20T16:01:24;0.90;73.00
24260;DHT22;12384;48.112;18.418;2022-12-20T16:03:54;0.90;73.20
24260;DHT22;12384;48.112;18.418;2022-12-20T16:06:23;0.90;73.50
24260;DHT22;12384;48.112;18.418;2022-12-20T16:08:51;0.90;73.80